Other Surface Observations
Issued by NWS Missoula, MT

Home | Current Version | Previous Version | Text Only | Print | Product List | Glossary On
Versions: 1 2 3 4 5 6 7 8 9 10 11 12 13 14 15 16 17 18 19 20 21 22 23 24 25 26 27 28 29 30 31 32 33 34 35 36 37 38 39 40 41 42 43 44 45 46 47 48 49 50
818
SXUS55 KMSO 301813
OSOMSO
MONTANA AWOS SUMMARY
NATIONAL WEATHER SERVICE MISSOULA MT
1113 AM MST THU MAR 30 2017

Montana AWOS Reports

EKALAKA     |K97M 301755Z AUTO 00000KT 40SM 11/03 A2972 RMK AO1 T01110033
SCOBEY      |K9S2 301755Z AUTO 00000KT 40SM 16/M01 A2969 RMK AO1 T01561005
PLAINS      |KS34 301755Z AUTO 27005KT 40SM 11/00 A2986 RMK AO1 T01110000
TWIN BRIDGES|K7S1 301755Z AUTO 35005KT 40SM 08/01 A2976 RMK AO1 T00780011




USA.gov is the U.S. government's official web portal to all federal, state and local government web resources and services.